Time;durP1;ratioP1;P1;durP2;ratioP2;P2;SDS_P1;SDS_P2;PMS_P1;PMS_P2;Temp;Humidity;BMP_temperature;BMP_pressure;BME280_temperature;BME280_humidity;BME280_pressure;Samples;Min_cycle;Max_cycle;Signal;HPM_P1;HPM_P2
2022/09/27 00:04:58;;;;;;;0.50;0.50;;;;;;;9.98;100.00;99749.72;10568581;28;20384;-70
2022/09/27 00:09:59;;;;;;;0.40;0.40;;;;;;;9.87;100.00;99753.16;10565882;28;20043;-70
2022/09/27 00:15:01;;;;;;;0.30;0.30;;;;;;;9.76;100.00;99757.44;10585832;28;20028;-70
2022/09/27 00:20:01;;;;;;;0.40;0.40;;;;;;;9.78;100.00;99759.91;10566716;28;20043;-70
2022/09/27 00:25:04;;;;;;;0.40;0.40;;;;;;;9.95;100.00;99757.47;10584768;28;20028;-70
2022/09/27 00:30:05;;;;;;;0.35;0.35;;;;;;;10.17;100.00;99755.19;10550951;28;20085;-69
2022/09/27 00:35:05;;;;;;;0.40;0.40;;;;;;;10.23;100.00;99759.72;10585039;28;20462;-71
2022/09/27 00:40:07;;;;;;;0.40;0.40;;;;;;;10.22;100.00;99755.34;10567014;28;20048;-71
2022/09/27 00:45:12;;;;;;;0.50;0.50;;;;;;;10.25;100.00;99754.91;10565894;28;20035;-70
2022/09/27 00:50:23;;;;;;;0.60;0.60;;;;;;;10.42;100.00;99761.41;10584316;28;20027;-71
2022/09/27 00:55:26;;;;;;;0.30;0.30;;;;;;;10.51;100.00;99761.94;10564933;28;20036;-70
2022/09/27 01:00:27;;;;;;;0.43;0.43;;;;;;;10.57;100.00;99774.59;10565513;28;20027;-70
2022/09/27 01:05:27;;;;;;;0.50;0.50;;;;;;;10.62;100.00;99782.03;10565648;28;20379;-70
2022/09/27 01:10:30;;;;;;;0.40;0.40;;;;;;;10.63;100.00;99781.00;10548851;28;20028;-71
2022/09/27 01:15:37;;;;;;;0.50;0.50;;;;;;;10.66;100.00;99784.06;10565612;28;20027;-71
2022/09/27 01:20:37;;;;;;;1.30;1.30;;;;;;;10.69;100.00;99780.09;10566692;28;20098;-70
2022/09/27 01:25:53;;;;;;;0.40;0.40;;;;;;;10.70;100.00;99784.44;10566997;28;20035;-71
2022/09/27 01:30:58;;;;;;;1.40;1.40;;;;;;;10.67;100.00;99783.00;10585222;28;20043;-70
2022/09/27 01:36:16;;;;;;;0.30;0.30;;;;;;;10.70;100.00;99779.03;10564778;28;20024;-71
2022/09/27 01:41:34;;;;;;;0.40;0.40;;;;;;;10.57;100.00;99779.19;10582873;28;20135;-70
2022/09/27 01:46:37;;;;;;;0.30;0.30;;;;;;;10.44;100.00;99780.97;10564006;28;20123;-71
2022/09/27 01:51:43;;;;;;;1.38;1.38;;;;;;;10.43;100.00;99782.03;10582166;28;20028;-71
2022/09/27 01:56:51;;;;;;;0.40;0.40;;;;;;;10.49;100.00;99772.16;10549936;28;20034;-71
2022/09/27 02:01:51;;;;;;;0.30;0.30;;;;;;;10.36;100.00;99773.13;10549669;28;20023;-71
2022/09/27 02:07:19;;;;;;;0.40;0.40;;;;;;;10.16;100.00;99773.28;10564461;28;20062;-71
2022/09/27 02:12:22;;;;;;;0.43;0.43;;;;;;;10.26;100.00;99786.34;10566796;28;20135;-71
2022/09/27 02:17:26;;;;;;;0.30;0.30;;;;;;;10.49;100.00;99791.13;10563186;28;20115;-71
2022/09/27 02:23:02;;;;;;;0.47;0.47;;;;;;;10.20;100.00;99800.72;10582195;28;20037;-69
2022/09/27 02:28:40;;;;;;;0.47;0.47;;;;;;;9.74;100.00;99789.25;10563550;28;20118;-69
2022/09/27 02:33:44;;;;;;;0.32;0.32;;;;;;;9.65;100.00;99773.53;10417657;28;20543;-69
2022/09/27 02:38:45;;;;;;;0.50;0.50;;;;;;;9.64;100.00;99770.00;10553638;28;20104;-70
2022/09/27 02:43:47;;;;;;;4.32;2.13;;;;;;;9.64;100.00;99769.16;10590763;28;20432;-69
2022/09/27 02:49:00;;;;;;;12.35;2.38;;;;;;;9.67;100.00;99782.25;10571676;28;20039;-69
2022/09/27 02:54:19;;;;;;;7.30;2.08;;;;;;;9.65;100.00;99765.41;10572123;28;20031;-73
2022/09/27 02:59:34;;;;;;;4.35;2.40;;;;;;;9.66;100.00;99775.16;10589501;28;20059;-72
2022/09/27 03:04:34;;;;;;;6.38;2.28;;;;;;;9.63;100.00;99775.59;10574064;28;20073;-71
2022/09/27 03:09:46;;;;;;;3.55;2.35;;;;;;;9.53;100.00;99778.78;10592058;28;20467;-73
2022/09/27 03:14:48;;;;;;;11.07;2.53;;;;;;;9.40;100.00;99774.31;10574081;28;20114;-72
2022/09/27 03:19:48;;;;;;;5.50;1.80;;;;;;;9.40;100.00;99770.78;10591740;28;20039;-73
2022/09/27 03:24:49;;;;;;;6.97;2.15;;;;;;;9.59;100.00;99782.50;10591042;28;20035;-73
2022/09/27 03:29:49;;;;;;;11.38;3.35;;;;;;;9.78;100.00;99795.88;10590884;28;20039;-71
2022/09/27 03:34:49;;;;;;;1.83;1.55;;;;;;;9.77;100.00;99788.00;10590419;28;20036;-69
2022/09/27 03:39:50;;;;;;;18.08;2.30;;;;;;;9.72;100.00;99804.03;10572190;28;20125;-71
2022/09/27 03:44:50;;;;;;;8.55;1.73;;;;;;;9.70;100.00;99779.06;10572533;28;20050;-72
2022/09/27 03:49:50;;;;;;;9.88;2.42;;;;;;;9.70;100.00;99782.63;10589880;28;20036;-72
2022/09/27 03:54:51;;;;;;;9.85;2.90;;;;;;;9.69;100.00;99805.28;10588939;28;20039;-73
2022/09/27 03:59:51;;;;;;;6.43;2.03;;;;;;;9.71;100.00;99772.66;10569998;28;20038;-71
2022/09/27 04:04:52;;;;;;;9.52;2.55;;;;;;;9.66;100.00;99767.88;10586649;28;20031;-72
2022/09/27 04:09:52;;;;;;;4.50;1.83;;;;;;;9.60;100.00;99768.75;10568506;28;20039;-71
2022/09/27 04:14:54;;;;;;;4.45;1.00;;;;;;;9.57;100.00;99779.19;10569167;28;20081;-71
2022/09/27 04:19:54;;;;;;;12.05;1.40;;;;;;;9.54;100.00;99785.88;10567537;28;20432;-71
2022/09/27 04:24:54;;;;;;;8.57;3.20;;;;;;;9.44;100.00;99777.41;10584546;28;20057;-71
2022/09/27 04:29:55;;;;;;;2.67;1.75;;;;;;;9.42;100.00;99774.91;10585034;28;20110;-73
2022/09/27 04:40:16;;;;;;;5.85;3.00;;;;;;;9.47;100.00;99794.00;10583989;28;20417;-71
2022/09/27 04:45:17;;;;;;;6.78;1.75;;;;;;;9.51;100.00;99784.44;10584515;28;20036;-72
2022/09/27 04:50:18;;;;;;;7.78;2.78;;;;;;;9.54;100.00;99781.28;10550251;28;20100;-70
2022/09/27 04:55:19;;;;;;;7.00;3.28;;;;;;;9.51;100.00;99778.19;10582741;28;20035;-68
2022/09/27 05:00:20;;;;;;;10.73;1.88;;;;;;;9.47;100.00;99777.78;10565084;28;20032;-70
2022/09/27 05:05:20;;;;;;;5.35;2.03;;;;;;;9.44;100.00;99780.91;10565425;28;20038;-70
2022/09/27 05:10:21;;;;;;;7.25;1.75;;;;;;;9.39;100.00;99779.94;10584545;28;20035;-70
2022/09/27 05:15:21;;;;;;;1.40;1.27;;;;;;;9.38;100.00;99775.56;10565419;28;20465;-69
2022/09/27 05:20:24;;;;;;;10.77;2.22;;;;;;;9.31;100.00;99787.22;10564391;28;20364;-71
2022/09/27 05:25:24;;;;;;;5.40;1.75;;;;;;;9.36;100.00;99789.28;10582327;28;20032;-71
2022/09/27 05:30:25;;;;;;;5.00;2.35;;;;;;;9.53;100.00;99787.72;10581686;28;20031;-71
2022/09/27 05:35:25;;;;;;;8.93;2.28;;;;;;;9.66;100.00;99775.16;10581890;28;20035;-70
2022/09/27 05:40:26;;;;;;;9.27;1.92;;;;;;;9.66;100.00;99775.16;10565067;28;20055;-70
2022/09/27 05:45:26;;;;;;;8.65;2.63;;;;;;;9.61;100.00;99783.13;10564165;28;20031;-70
2022/09/27 05:50:26;;;;;;;18.40;3.30;;;;;;;9.54;100.00;99781.28;10581757;28;20028;-71
2022/09/27 05:55:28;;;;;;;4.88;2.90;;;;;;;9.56;100.00;99783.75;10581561;28;20065;-71
2022/09/27 06:00:29;;;;;;;1.95;1.50;;;;;;;9.56;100.00;99781.06;10581806;28;20028;-71
2022/09/27 06:05:30;;;;;;;13.30;3.67;;;;;;;9.59;100.00;99783.31;10570076;28;20367;-71
2022/09/27 06:10:31;;;;;;;6.05;2.58;;;;;;;9.62;100.00;99780.19;10594324;28;20035;-72
2022/09/27 06:15:32;;;;;;;3.08;1.55;;;;;;;9.68;100.00;99783.91;10591525;28;20023;-71
2022/09/27 06:20:32;;;;;;;12.60;1.90;;;;;;;9.77;100.00;99790.69;10592421;28;20059;-73
2022/09/27 06:25:34;;;;;;;10.48;1.98;;;;;;;9.82;100.00;99785.44;10571228;28;20070;-73
2022/09/27 06:30:38;;;;;;;2.75;1.33;;;;;;;9.91;100.00;99786.81;10554067;28;20404;-71
2022/09/27 06:35:38;;;;;;;2.95;1.95;;;;;;;10.12;100.00;99776.69;10588414;28;20024;-71
2022/09/27 06:40:39;;;;;;;10.80;2.50;;;;;;;10.22;100.00;99782.41;10586598;28;20043;-72
2022/09/27 06:45:39;;;;;;;1.42;1.33;;;;;;;10.31;100.00;99794.63;10585409;28;20024;-71
2022/09/27 06:50:40;;;;;;;13.00;2.88;;;;;;;10.37;100.00;99806.44;10584492;28;20031;-71
2022/09/27 06:55:41;;;;;;;5.13;3.05;;;;;;;10.44;100.00;99810.75;10584598;28;20030;-73
2022/09/27 07:00:41;;;;;;;4.50;2.15;;;;;;;10.54;100.00;99822.94;10567186;28;20028;-73
2022/09/27 07:05:42;;;;;;;7.80;2.50;;;;;;;10.57;100.00;99823.31;10569025;28;20020;-74
2022/09/27 07:10:42;;;;;;;3.30;1.42;;;;;;;10.53;100.00;99829.38;10584386;28;20055;-72
2022/09/27 07:15:43;;;;;;;9.35;1.90;;;;;;;10.41;100.00;99832.84;10586893;28;20043;-71
2022/09/27 07:20:43;;;;;;;7.53;2.63;;;;;;;10.20;100.00;99819.66;10567558;28;20027;-72
2022/09/27 07:25:43;;;;;;;4.55;1.27;;;;;;;10.08;100.00;99818.72;10566181;28;20039;-72
2022/09/27 07:30:44;;;;;;;7.47;2.08;;;;;;;10.09;100.00;99812.28;10585927;28;20035;-71
2022/09/27 07:35:45;;;;;;;7.00;2.30;;;;;;;10.17;100.00;99809.28;10567427;28;20410;-70
2022/09/27 07:40:45;;;;;;;4.07;1.65;;;;;;;10.29;100.00;99821.06;10512651;28;1093311;-72
2022/09/27 07:45:45;;;;;;;3.40;1.92;;;;;;;10.30;100.00;99844.38;10586252;28;20043;-70
2022/09/27 07:50:47;;;;;;;2.55;1.40;;;;;;;10.26;100.00;99848.59;10585190;28;20028;-71
2022/09/27 07:55:52;;;;;;;7.97;1.90;;;;;;;10.16;100.00;99846.34;10550674;28;20373;-72
2022/09/27 08:00:53;;;;;;;3.63;1.45;;;;;;;10.15;100.00;99842.00;10568110;28;20115;-71
2022/09/27 08:05:53;;;;;;;8.27;2.50;;;;;;;10.20;100.00;99852.13;10586782;28;20123;-73
2022/09/27 08:10:54;;;;;;;1.17;1.17;;;;;;;10.24;100.00;99856.03;10551713;28;20039;-72
2022/09/27 08:16:00;;;;;;;5.45;2.03;;;;;;;10.25;100.00;99861.25;10568564;28;20035;-72
2022/09/27 08:21:00;;;;;;;7.73;2.33;;;;;;;10.32;100.00;99873.94;10570157;28;20015;-71
2022/09/27 08:26:01;;;;;;;2.72;2.08;;;;;;;10.34;100.00;99882.63;10588591;28;20020;-71
2022/09/27 08:31:01;;;;;;;6.22;2.17;;;;;;;10.35;100.00;99887.84;10586299;28;20036;-69
2022/09/27 08:36:02;;;;;;;13.65;1.83;;;;;;;10.38;100.00;99894.69;10586701;28;20026;-69
2022/09/27 08:41:15;;;;;;;2.15;0.90;;;;;;;10.46;100.00;99884.44;10584389;28;20436;-72
2022/09/27 08:46:52;;;;;;;12.48;1.50;;;;;;;10.57;100.00;99876.63;10552373;28;20035;-71
2022/09/27 08:51:53;;;;;;;5.97;1.60;;;;;;;10.61;100.00;99873.25;10584744;28;20023;-71
2022/09/27 08:56:56;;;;;;;2.90;1.50;;;;;;;10.82;100.00;99880.13;10566213;28;20439;-70
2022/09/27 09:01:56;;;;;;;4.88;1.73;;;;;;;10.99;100.00;99863.28;10583579;28;20035;-71
2022/09/27 09:07:05;;;;;;;3.92;1.98;;;;;;;11.18;100.00;99864.94;10584056;28;20362;-72
2022/09/27 09:18:06;;;;;;;4.88;1.95;;;;;;;11.41;100.00;99872.34;10582033;28;20043;-72
2022/09/27 09:23:16;;;;;;;5.45;1.95;;;;;;;11.47;100.00;99882.28;10564891;28;20102;-70
2022/09/27 09:28:22;;;;;;;1.83;1.73;;;;;;;11.32;100.00;99889.97;10581704;28;20031;-71
2022/09/27 09:33:30;;;;;;;1.25;1.20;;;;;;;11.18;100.00;99897.44;10582187;28;20055;-70
2022/09/27 09:38:51;;;;;;;6.38;1.35;;;;;;;10.89;100.00;99912.56;10531441;28;20047;-70
2022/09/27 09:44:14;;;;;;;2.30;1.60;;;;;;;10.63;100.00;99919.06;10582826;28;20447;-71
2022/09/27 09:49:28;;;;;;;2.45;1.70;;;;;;;10.30;100.00;99912.03;10581824;28;20027;-70
2022/09/27 09:54:32;;;;;;;5.63;1.52;;;;;;;10.04;100.00;99910.31;10563600;28;20019;-71
2022/09/27 09:59:44;;;;;;;5.68;1.13;;;;;;;9.69;100.00;99913.41;10546795;28;20354;-70
2022/09/27 10:04:44;;;;;;;2.40;1.67;;;;;;;9.45;100.00;99903.38;10546693;28;20039;-70
2022/09/27 10:09:44;;;;;;;2.40;1.80;;;;;;;9.27;100.00;99920.25;10581970;28;20023;-70
2022/09/27 10:14:46;;;;;;;4.35;1.80;;;;;;;9.08;100.00;99906.59;10565491;28;20038;-70
2022/09/27 10:19:47;;;;;;;6.00;1.55;;;;;;;9.00;100.00;99914.94;10564319;28;20056;-70
2022/09/27 10:25:00;;;;;;;2.92;2.47;;;;;;;8.84;100.00;99893.81;10563334;28;20042;-69
2022/09/27 10:30:01;;;;;;;9.25;2.30;;;;;;;9.01;100.00;99895.00;10549000;28;20028;-71
2022/09/27 10:35:36;;;;;;;9.93;2.08;;;;;;;9.03;100.00;99890.22;10563087;28;20030;-70
2022/09/27 10:40:37;;;;;;;6.43;1.98;;;;;;;9.24;100.00;99890.97;10564511;28;20080;-71
2022/09/27 10:45:39;;;;;;;7.68;1.48;;;;;;;9.43;100.00;99891.94;10581145;28;20027;-70
2022/09/27 10:50:40;;;;;;;1.83;1.73;;;;;;;9.39;100.00;99880.72;10567483;28;20081;-71
2022/09/27 10:55:41;;;;;;;2.95;1.67;;;;;;;9.38;100.00;99884.50;10555943;28;20027;-70
2022/09/27 11:00:41;;;;;;;6.32;2.05;;;;;;;9.45;100.00;99884.47;10570041;28;20467;-69
2022/09/27 11:05:42;;;;;;;4.32;1.80;;;;;;;9.71;100.00;99880.78;10569475;28;20088;-70
2022/09/27 11:10:42;;;;;;;1.27;1.00;;;;;;;10.05;100.00;99884.94;10569744;28;20419;-70
2022/09/27 11:16:05;;;;;;;2.40;1.55;;;;;;;10.40;100.00;99877.19;10569089;28;20074;-70
2022/09/27 11:21:10;;;;;;;5.75;1.63;;;;;;;10.75;100.00;99873.94;10586135;28;20034;-69
2022/09/27 11:26:23;;;;;;;2.58;1.27;;;;;;;11.06;100.00;99875.69;10570084;28;20024;-70
2022/09/27 11:31:39;;;;;;;4.50;1.35;;;;;;;10.97;100.00;99866.19;10569031;28;20028;-70
2022/09/27 11:36:54;;;;;;;1.17;1.17;;;;;;;11.16;100.00;99864.31;10569377;28;20020;-71
2022/09/27 11:42:32;;;;;;;5.47;1.75;;;;;;;11.50;100.00;99862.03;10567452;28;20044;-70
2022/09/27 11:48:04;;;;;;;6.05;2.10;;;;;;;11.70;100.00;99854.44;10587281;28;20133;-71
2022/09/27 11:53:30;;;;;;;4.82;2.17;;;;;;;12.21;100.00;99852.25;10571283;28;20474;-71
2022/09/27 11:59:04;;;;;;;7.57;2.00;;;;;;;12.47;100.00;99849.06;10549512;28;20026;-72
2022/09/27 12:04:18;;;;;;;4.35;1.48;;;;;;;13.06;100.00;99845.50;10577576;28;20047;-72
2022/09/27 12:09:31;;;;;;;1.88;1.20;;;;;;;13.86;100.00;99836.47;10568414;28;20024;-73
2022/09/27 12:14:39;;;;;;;6.28;1.35;;;;;;;15.95;100.00;99828.44;10549417;28;20023;-74
2022/09/27 12:19:43;;;;;;;3.33;1.90;;;;;;;17.53;100.00;99819.53;10565624;28;20031;-74
2022/09/27 12:24:44;;;;;;;6.18;1.55;;;;;;;16.64;100.00;99815.84;10566136;28;20035;-73
2022/09/27 12:29:44;;;;;;;1.38;1.27;;;;;;;15.16;100.00;99815.28;10565888;28;20032;-74
2022/09/27 12:35:17;;;;;;;1.55;1.33;;;;;;;14.40;100.00;99823.19;10532320;28;20358;-74
2022/09/27 12:40:18;;;;;;;1.98;1.48;;;;;;;13.89;100.00;99822.38;10548440;28;20386;-75
2022/09/27 12:45:27;;;;;;;1.98;1.60;;;;;;;13.72;100.00;99806.03;10565439;28;20035;-74
2022/09/27 12:50:39;;;;;;;4.90;2.25;;;;;;;13.65;100.00;99806.16;10567331;28;20034;-74
2022/09/27 12:56:05;;;;;;;4.40;2.53;;;;;;;13.91;100.00;99799.28;10583292;28;20428;-74
2022/09/27 13:01:43;;;;;;;5.20;2.38;;;;;;;14.07;100.00;99803.09;10565169;28;20028;-74
2022/09/27 13:07:10;;;;;;;3.03;2.25;;;;;;;14.13;100.00;99802.06;10583297;28;20042;-75
2022/09/27 13:12:19;;;;;;;9.60;1.95;;;;;;;14.15;100.00;99797.22;10570368;28;20019;-74
2022/09/27 13:17:36;;;;;;;3.03;1.83;;;;;;;14.00;100.00;99805.13;10552211;28;20027;-74
2022/09/27 13:22:38;;;;;;;8.13;1.83;;;;;;;13.69;100.00;99804.63;10587327;28;20454;-76
2022/09/27 13:27:39;;;;;;;2.67;2.25;;;;;;;13.50;100.00;99792.31;10582505;28;20345;-75
2022/09/27 13:32:39;;;;;;;6.88;2.50;;;;;;;13.50;100.00;99786.88;10582395;28;20031;-74
2022/09/27 13:37:43;;;;;;;4.22;1.70;;;;;;;13.43;100.00;99783.44;10582813;28;20046;-75
2022/09/27 13:43:16;;;;;;;7.25;2.28;;;;;;;13.50;100.00;99786.88;10564045;28;20044;-75
2022/09/27 13:48:19;;;;;;;2.97;2.00;;;;;;;13.77;100.00;99786.25;10582143;28;20020;-75
2022/09/27 13:53:26;;;;;;;7.60;2.70;;;;;;;14.01;100.00;99782.31;10546743;28;20038;-74
2022/09/27 13:58:29;;;;;;;6.32;1.63;;;;;;;14.01;100.00;99774.13;10582344;28;20427;-76
2022/09/27 14:03:36;;;;;;;4.10;1.77;;;;;;;13.79;100.00;99767.78;10581942;28;20061;-75
2022/09/27 14:08:49;;;;;;;3.33;1.83;;;;;;;13.30;100.00;99751.13;10581254;28;20159;-75
2022/09/27 14:13:49;;;;;;;6.63;2.65;;;;;;;13.12;100.00;99755.66;10581168;28;20455;-76
2022/09/27 14:18:52;;;;;;;21.00;2.58;;;;;;;12.90;100.00;99762.81;10547053;28;20030;-76
2022/09/27 14:23:53;;;;;;;7.63;1.98;;;;;;;12.21;100.00;99766.22;10580972;28;20023;-73
2022/09/27 14:28:53;;;;;;;5.30;1.92;;;;;;;11.71;100.00;99771.19;10588118;28;20412;-71
2022/09/27 14:34:04;;;;;;;8.77;2.58;;;;;;;11.29;100.00;99760.34;10570803;28;20031;-72
2022/09/27 14:39:15;;;;;;;6.43;2.72;;;;;;;11.16;100.00;99743.22;10590817;28;20054;-72
2022/09/27 14:44:19;;;;;;;4.32;1.70;;;;;;;11.30;100.00;99741.16;10570267;28;20455;-72
2022/09/27 14:49:21;;;;;;;4.10;2.00;;;;;;;11.23;100.00;99759.41;10589376;28;20028;-69
2022/09/27 14:54:25;;;;;;;8.45;5.13;;;;;;;11.18;100.00;99757.38;10571631;28;20098;-70
2022/09/27 14:59:36;;;;;;;12.15;5.05;;;;;;;11.12;100.00;99754.75;10586713;28;20477;-69
2022/09/27 15:04:37;;;;;;;9.60;2.45;;;;;;;11.26;100.00;99747.25;10554460;28;20084;-70
2022/09/27 15:09:37;;;;;;;8.18;3.63;;;;;;;11.52;100.00;99752.31;10569780;28;20028;-69
2022/09/27 15:14:41;;;;;;;9.63;2.58;;;;;;;11.91;100.00;99750.03;10569885;28;20081;-71
2022/09/27 15:19:57;;;;;;;11.52;2.80;;;;;;;12.09;100.00;99743.66;10569974;28;20027;-70
2022/09/27 15:25:18;;;;;;;7.33;3.70;;;;;;;11.90;100.00;99737.56;10569436;28;20035;-70
2022/09/27 15:30:26;;;;;;;9.18;3.10;;;;;;;11.70;100.00;99724.25;10587278;28;20027;-69
2022/09/27 15:35:32;;;;;;;12.07;3.67;;;;;;;11.66;100.00;99725.81;10570175;28;20080;-70
2022/09/27 15:40:56;;;;;;;3.88;2.45;;;;;;;11.62;100.00;99720.03;10570000;28;20471;-70
2022/09/27 15:46:00;;;;;;;6.43;2.92;;;;;;;11.67;100.00;99716.59;10591226;28;20062;-71
2022/09/27 15:51:01;;;;;;;7.25;2.58;;;;;;;11.62;100.00;99706.47;10584689;28;20115;-71
2022/09/27 15:56:02;;;;;;;11.65;2.83;;;;;;;11.60;100.00;99707.75;10586467;28;20079;-71
2022/09/27 16:01:06;;;;;;;6.88;3.42;;;;;;;11.61;100.00;99706.69;10568750;28;20451;-71
2022/09/27 16:06:10;;;;;;;13.25;3.35;;;;;;;11.51;100.00;99701.00;10558935;28;20112;-72
2022/09/27 16:11:14;;;;;;;9.02;3.00;;;;;;;11.45;100.00;99700.06;10569806;28;20023;-71
2022/09/27 16:16:16;;;;;;;14.20;2.65;;;;;;;11.39;100.00;99698.28;10569197;28;20026;-71
2022/09/27 16:21:17;;;;;;;9.73;2.17;;;;;;;11.26;100.00;99696.59;10567634;28;20363;-71
2022/09/27 16:26:18;;;;;;;3.33;1.75;;;;;;;11.21;100.00;99698.38;10584117;28;20032;-72
2022/09/27 16:31:18;;;;;;;21.83;2.58;;;;;;;11.13;100.00;99702.19;10567800;28;20032;-72
2022/09/27 16:36:19;;;;;;;3.42;2.45;;;;;;;11.05;100.00;99694.41;10584330;28;20115;-72
2022/09/27 16:41:20;;;;;;;7.55;2.53;;;;;;;11.00;100.00;99695.09;10566228;28;20055;-71
2022/09/27 16:46:20;;;;;;;6.63;1.85;;;;;;;10.97;100.00;99687.44;10583231;28;20111;-72
2022/09/27 16:56:40;;;;;;;2.15;1.45;;;;;;;10.88;100.00;99683.38;10583312;28;20371;-73
2022/09/27 17:01:41;;;;;;;1.75;1.58;;;;;;;10.82;100.00;99678.91;10548394;28;20371;-73
2022/09/27 17:06:41;;;;;;;5.63;2.00;;;;;;;10.77;100.00;99685.00;10566126;28;20081;-72
2022/09/27 17:11:42;;;;;;;11.82;2.22;;;;;;;10.70;100.00;99668.00;10583227;28;20024;-72
2022/09/27 17:16:43;;;;;;;9.75;2.45;;;;;;;10.66;100.00;99661.41;10548131;28;20073;-73
2022/09/27 17:21:44;;;;;;;10.90;2.97;;;;;;;10.63;100.00;99649.16;10583096;28;20036;-72
2022/09/27 17:26:44;;;;;;;4.30;1.80;;;;;;;10.57;100.00;99660.06;10583252;28;20057;-72
2022/09/27 17:31:45;;;;;;;8.23;1.67;;;;;;;10.53;100.00;99669.69;10582403;28;20035;-73
2022/09/27 17:36:49;;;;;;;1.77;1.65;;;;;;;10.53;100.00;99677.81;10566699;28;20039;-70
2022/09/27 17:41:49;;;;;;;4.20;2.63;;;;;;;10.50;100.00;99660.16;10564345;28;20047;-72
2022/09/27 17:50:23;;;;;;;7.57;2.70;;;;;;;10.53;100.00;99664.25;10581079;28;20032;-73
2022/09/27 17:52:10;;;;;;;3.00;1.95;;;;;;;10.47;100.00;99666.84;10581477;28;20040;-70
2022/09/27 17:57:11;;;;;;;11.23;2.88;;;;;;;10.41;100.00;99688.56;10582393;28;20366;-68
2022/09/27 18:02:11;;;;;;;8.02;2.85;;;;;;;10.27;100.00;99690.59;10596259;28;20032;-68
2022/09/27 18:07:12;;;;;;;7.65;3.28;;;;;;;10.09;100.00;99696.81;10599213;28;20367;-67
2022/09/27 18:12:12;;;;;;;4.90;3.15;;;;;;;9.91;100.00;99699.47;10576413;28;20027;-68
2022/09/27 18:17:12;;;;;;;3.97;2.70;;;;;;;9.72;100.00;99687.78;10590200;28;20019;-69
2022/09/27 18:22:13;;;;;;;5.05;2.72;;;;;;;9.68;100.00;99702.81;10590166;28;20028;-69
2022/09/27 18:27:17;;;;;;;11.07;2.67;;;;;;;9.61;100.00;99681.25;10571363;28;20088;-70
2022/09/27 18:32:17;;;;;;;9.48;2.83;;;;;;;9.47;100.00;99675.09;10590459;28;20463;-69
2022/09/27 18:37:18;;;;;;;5.47;2.42;;;;;;;9.45;100.00;99666.41;10588995;28;20156;-69
2022/09/27 18:42:18;;;;;;;3.80;2.50;;;;;;;9.44;100.00;99667.44;10588057;28;20104;-69
2022/09/27 18:47:18;;;;;;;11.95;2.60;;;;;;;9.32;100.00;99663.81;10588835;28;20032;-71
2022/09/27 18:52:19;;;;;;;2.72;2.22;;;;;;;9.23;100.00;99651.63;10588953;28;20063;-72
2022/09/27 18:57:19;;;;;;;4.07;2.25;;;;;;;9.22;100.00;99660.75;10569634;28;20031;-73
2022/09/27 19:02:19;;;;;;;7.07;2.35;;;;;;;9.29;100.00;99662.38;10587682;28;20433;-72
2022/09/27 19:07:20;;;;;;;6.97;1.85;;;;;;;9.34;100.00;99671.69;10586929;28;20035;-71
2022/09/27 19:12:20;;;;;;;3.00;2.33;;;;;;;9.34;100.00;99669.81;10569551;28;20028;-70
2022/09/27 19:17:21;;;;;;;2.72;2.42;;;;;;;9.27;100.00;99666.31;10569076;28;20512;-70
2022/09/27 19:22:22;;;;;;;4.20;2.97;;;;;;;9.21;100.00;99667.19;10552516;28;20039;-72
2022/09/27 19:27:22;;;;;;;6.50;2.75;;;;;;;9.20;100.00;99676.38;10569469;28;20027;-69
2022/09/27 19:32:23;;;;;;;4.40;2.67;;;;;;;9.17;100.00;99671.41;10587105;28;20032;-71
2022/09/27 19:37:23;;;;;;;6.63;2.38;;;;;;;9.19;100.00;99682.78;10586477;28;20424;-68
2022/09/27 19:42:24;;;;;;;7.38;2.33;;;;;;;9.24;100.00;99678.41;10567373;28;20380;-68
2022/09/27 19:47:24;;;;;;;9.77;2.40;;;;;;;9.19;100.00;99686.34;10586245;28;20024;-69
2022/09/27 19:52:25;;;;;;;2.40;2.17;;;;;;;9.13;100.00;99681.81;10587139;28;20023;-68
2022/09/27 19:57:25;;;;;;;5.20;2.60;;;;;;;9.11;100.00;99696.56;10567658;28;20439;-68
2022/09/27 20:02:26;;;;;;;2.47;2.28;;;;;;;9.07;100.00;99698.88;10585755;28;20411;-67
2022/09/27 20:07:26;;;;;;;4.70;3.35;;;;;;;9.14;100.00;99725.84;10567111;28;20028;-67
2022/09/27 20:12:26;;;;;;;5.10;3.72;;;;;;;9.16;100.00;99724.59;10585273;28;20036;-67
2022/09/27 20:17:31;;;;;;;5.25;2.88;;;;;;;9.11;100.00;99712.78;10585431;28;20421;-67
2022/09/27 20:22:31;;;;;;;7.88;3.78;;;;;;;9.08;100.00;99712.16;10585832;28;20031;-67
2022/09/27 20:27:31;;;;;;;2.42;2.20;;;;;;;9.04;100.00;99716.34;10588332;28;20024;-67
2022/09/27 20:32:33;;;;;;;11.75;2.95;;;;;;;8.84;100.00;99711.06;10591310;28;20032;-68
2022/09/27 20:37:34;;;;;;;0.50;0.50;;;;;;;8.65;100.00;99708.44;10566564;28;20035;-69
2022/09/27 20:42:34;;;;;;;0.50;0.50;;;;;;;8.55;100.00;99700.78;10566253;28;20043;-68
2022/09/27 20:47:34;;;;;;;0.50;0.50;;;;;;;8.54;100.00;99694.56;10583971;28;20032;-71
2022/09/27 20:52:35;;;;;;;0.40;0.40;;;;;;;8.48;100.00;99697.28;10585585;28;20027;-70
2022/09/27 20:57:35;;;;;;;0.57;0.57;;;;;;;8.46;100.00;99688.59;10584687;28;20027;-67
2022/09/27 21:02:35;;;;;;;0.40;0.40;;;;;;;8.43;100.00;99681.75;10584239;28;20032;-68
2022/09/27 21:07:36;;;;;;;0.55;0.55;;;;;;;8.38;100.00;99678.84;10582883;28;20024;-69
2022/09/27 21:12:37;;;;;;;0.60;0.60;;;;;;;8.39;100.00;99661.63;10565175;28;20055;-69
2022/09/27 21:17:37;;;;;;;0.40;0.40;;;;;;;8.36;100.00;99660.19;10564951;28;20024;-70
2022/09/27 21:22:38;;;;;;;2.47;2.38;;;;;;;8.41;100.00;99658.72;10565239;28;20043;-70
2022/09/27 21:27:39;;;;;;;0.50;0.50;;;;;;;8.41;100.00;99653.34;10549019;28;20058;-69
2022/09/27 21:32:39;;;;;;;0.28;0.28;;;;;;;8.40;100.00;99647.13;10582749;28;20051;-70
2022/09/27 21:37:39;;;;;;;0.40;0.40;;;;;;;8.40;100.00;99638.19;10582456;28;20040;-70
2022/09/27 21:42:40;;;;;;;0.50;0.50;;;;;;;8.35;100.00;99639.63;10563343;28;20131;-69
2022/09/27 21:47:40;;;;;;;0.47;0.47;;;;;;;8.35;100.00;99641.50;10564020;28;20019;-69
2022/09/27 21:52:41;;;;;;;0.50;0.50;;;;;;;8.44;100.00;99661.81;10582763;28;20028;-68
2022/09/27 21:57:41;;;;;;;0.40;0.40;;;;;;;8.51;100.00;99646.44;10581713;28;20024;-69
2022/09/27 22:02:42;;;;;;;0.40;0.40;;;;;;;8.55;100.00;99655.78;10582588;28;20027;-69
2022/09/27 22:07:42;;;;;;;0.55;0.55;;;;;;;8.65;100.00;99659.84;10581381;28;20077;-69
2022/09/27 22:12:42;;;;;;;0.50;0.50;;;;;;;8.68;100.00;99667.50;10582478;28;20040;-69
2022/09/27 22:17:43;;;;;;;0.63;0.63;;;;;;;8.70;100.00;99684.34;10581932;28;20455;-69
2022/09/27 22:22:43;;;;;;;0.40;0.40;;;;;;;8.64;100.00;99688.72;10582762;28;20398;-68
2022/09/27 22:27:43;;;;;;;0.43;0.43;;;;;;;8.64;100.00;99694.09;10581519;28;20420;-68
2022/09/27 22:32:44;;;;;;;1.70;1.70;;;;;;;8.63;100.00;99688.94;10582271;28;20035;-69
2022/09/27 22:37:45;;;;;;;0.50;0.50;;;;;;;8.51;100.00;99662.63;10563064;28;20047;-69
2022/09/27 22:42:46;;;;;;;0.52;0.52;;;;;;;8.52;100.00;99667.00;10546726;28;20043;-69
2022/09/27 22:47:46;;;;;;;0.65;0.65;;;;;;;8.49;100.00;99662.03;10584681;28;20070;-70
2022/09/27 22:52:47;;;;;;;0.50;0.50;;;;;;;8.50;100.00;99650.19;10594764;28;20043;-69
2022/09/27 22:57:47;;;;;;;0.50;0.50;;;;;;;8.53;100.00;99636.25;10597667;28;20089;-70
2022/09/27 23:02:47;;;;;;;0.60;0.60;;;;;;;8.55;100.00;99638.72;10570426;28;20062;-69
2022/09/27 23:07:51;;;;;;;0.45;0.45;;;;;;;8.46;100.00;99645.44;10569739;28;20043;-70
2022/09/27 23:12:52;;;;;;;0.60;0.60;;;;;;;8.29;100.00;99634.25;10586852;28;20114;-71
2022/09/27 23:17:53;;;;;;;0.43;0.43;;;;;;;8.09;100.00;99637.03;10587884;28;20059;-71
2022/09/27 23:22:54;;;;;;;0.50;0.50;;;;;;;7.95;100.00;99624.63;10587949;28;20032;-70
2022/09/27 23:27:55;;;;;;;1.40;1.40;;;;;;;7.83;100.00;99619.06;10586905;28;20080;-70
2022/09/27 23:32:56;;;;;;;0.50;0.50;;;;;;;7.68;100.00;99613.91;10587220;28;20043;-71
2022/09/27 23:37:56;;;;;;;1.05;1.05;;;;;;;7.55;100.00;99619.31;10588196;28;20362;-70
2022/09/27 23:43:00;;;;;;;0.50;0.50;;;;;;;7.49;100.00;99620.16;10588112;28;20191;-69